Time;durP1;ratioP1;P1;durP2;ratioP2;P2;SDS_P1;SDS_P2;PMS_P1;PMS_P2;Temp;Humidity;BMP_temperature;BMP_pressure;BME280_temperature;BME280_humidity;BME280_pressure;Samples;Min_cycle;Max_cycle;Signal;HPM_P1;HPM_P2
2022/12/06 00:01:17;;;;;;;6.95;6.00;;;;;;;0.92;100.00;101149.44;5065052;28;20044;-73
2022/12/06 00:03:47;;;;;;;7.25;5.43;;;;;;;0.91;100.00;101149.38;5063531;28;20049;-74
2022/12/06 00:06:18;;;;;;;9.63;6.47;;;;;;;0.93;100.00;101151.22;5045359;28;20082;-73
2022/12/06 00:08:47;;;;;;;8.15;5.93;;;;;;;0.91;100.00;101159.69;5045311;28;20040;-73
2022/12/06 00:11:32;;;;;;;8.65;6.28;;;;;;;0.88;100.00;101162.19;5045635;28;20671;-72
2022/12/06 00:14:05;;;;;;;9.43;6.75;;;;;;;0.87;100.00;101155.25;5041161;28;20040;-74
2022/12/06 00:16:34;;;;;;;7.50;5.97;;;;;;;0.86;100.00;101151.81;5040667;28;20535;-74
2022/12/06 00:19:01;;;;;;;9.13;6.00;;;;;;;0.89;100.00;101148.47;5042544;28;20075;-73
2022/12/06 00:21:32;;;;;;;7.57;6.10;;;;;;;0.90;100.00;101145.94;5043257;28;20466;-73
2022/12/06 00:24:02;;;;;;;8.32;5.65;;;;;;;0.89;100.00;101138.16;5060134;28;20062;-73
2022/12/06 00:26:30;;;;;;;7.97;5.80;;;;;;;0.89;100.00;101141.59;5042813;28;20076;-75
2022/12/06 00:29:00;;;;;;;7.78;6.15;;;;;;;0.88;100.00;101146.72;5038651;28;20048;-73
2022/12/06 00:31:29;;;;;;;8.05;5.97;;;;;;;0.84;100.00;101139.69;5047479;28;20040;-76
2022/12/06 00:33:57;;;;;;;9.13;5.53;;;;;;;0.85;100.00;101136.25;5044900;28;20947;-73
2022/12/06 00:36:34;;;;;;;9.48;6.03;;;;;;;0.85;100.00;101133.69;5045301;28;20087;-73
2022/12/06 00:39:04;;;;;;;6.63;5.28;;;;;;;0.87;100.00;101132.06;5047129;28;20119;-73
2022/12/06 00:41:30;;;;;;;10.63;7.53;;;;;;;0.89;100.00;101133.00;5049988;28;20123;-74
2022/12/06 00:43:57;;;;;;;8.00;5.40;;;;;;;0.84;100.00;101130.25;5050105;28;20716;-75
2022/12/06 00:46:30;;;;;;;8.48;6.40;;;;;;;0.87;100.00;101132.06;5050245;28;20055;-74
2022/12/06 00:48:59;;;;;;;10.35;6.72;;;;;;;0.87;100.00;101132.91;5050181;28;20206;-73
2022/12/06 00:51:29;;;;;;;8.95;6.07;;;;;;;0.89;100.00;101128.72;5052555;28;20056;-73
2022/12/06 00:53:57;;;;;;;7.90;5.63;;;;;;;0.92;100.00;101139.13;5052028;28;21483;-74
2022/12/06 00:56:25;;;;;;;6.50;5.18;;;;;;;0.90;100.00;101134.75;5049978;28;20044;-73
2022/12/06 00:58:51;;;;;;;5.30;4.55;;;;;;;0.88;100.00;101133.81;5040562;28;20047;-74
2022/12/06 01:01:27;;;;;;;4.63;4.20;;;;;;;0.85;100.00;101126.84;5049482;28;20055;-74
2022/12/06 01:03:58;;;;;;;5.07;4.18;;;;;;;0.85;100.00;101129.44;5052806;28;20122;-74
2022/12/06 01:06:29;;;;;;;7.10;4.97;;;;;;;0.81;100.00;101131.00;5046868;28;20520;-73
2022/12/06 01:08:59;;;;;;;4.47;3.92;;;;;;;0.77;100.00;101129.13;5048946;28;20162;-73
2022/12/06 01:11:28;;;;;;;6.28;4.47;;;;;;;0.79;100.00;101126.59;5026123;28;20467;-73
2022/12/06 01:13:54;;;;;;;9.95;4.93;;;;;;;0.77;100.00;101128.22;5055128;28;20051;-73
2022/12/06 01:16:25;;;;;;;7.25;5.03;;;;;;;0.74;100.00;101128.13;5050089;28;20047;-74
2022/12/06 01:18:56;;;;;;;5.22;4.38;;;;;;;0.76;100.00;101134.22;5054838;28;20040;-73
2022/12/06 01:21:26;;;;;;;4.90;4.40;;;;;;;0.81;100.00;101136.16;5053929;28;20046;-74
2022/12/06 01:23:53;;;;;;;6.63;4.82;;;;;;;0.82;100.00;101122.47;5051943;28;20479;-73
2022/12/06 01:26:33;;;;;;;6.68;4.60;;;;;;;0.82;100.00;101132.75;5022638;28;20531;-73
2022/12/06 01:29:03;;;;;;;4.68;4.28;;;;;;;0.84;100.00;101126.78;5027633;28;20432;-73
2022/12/06 01:31:30;;;;;;;6.40;5.13;;;;;;;0.87;100.00;101122.63;5044052;28;20851;-74
2022/12/06 01:33:57;;;;;;;6.78;5.18;;;;;;;0.82;100.00;101129.28;5028948;28;20144;-73
2022/12/06 01:36:25;;;;;;;7.47;4.82;;;;;;;0.81;100.00;101130.13;5025847;28;20044;-74
2022/12/06 01:38:59;;;;;;;5.13;4.25;;;;;;;0.80;100.00;101120.63;5013701;28;20056;-73
2022/12/06 01:41:27;;;;;;;6.22;5.10;;;;;;;0.76;100.00;101121.34;5028923;28;20037;-74
2022/12/06 01:43:56;;;;;;;8.65;5.05;;;;;;;0.77;100.00;101118.81;5028502;28;20331;-73
2022/12/06 01:46:40;;;;;;;7.80;5.32;;;;;;;0.78;100.00;101127.41;5020787;28;20437;-76
2022/12/06 01:49:12;;;;;;;6.20;4.60;;;;;;;0.70;100.00;101110.78;5043979;28;20051;-72
2022/12/06 01:51:47;;;;;;;5.18;4.68;;;;;;;0.67;100.00;101121.84;5042944;28;20073;-73
2022/12/06 01:54:16;;;;;;;4.13;3.72;;;;;;;0.64;100.00;101120.03;5014115;28;20053;-73
2022/12/06 01:56:43;;;;;;;4.70;4.25;;;;;;;0.62;100.00;101111.34;5027243;28;20692;-73
2022/12/06 01:59:11;;;;;;;5.05;4.22;;;;;;;0.59;100.00;101110.38;5029133;28;20045;-73
2022/12/06 02:01:39;;;;;;;5.32;4.75;;;;;;;0.55;100.00;101116.22;5025183;28;20060;-74
2022/12/06 02:04:07;;;;;;;9.60;5.32;;;;;;;0.53;100.00;101111.00;5033891;28;20051;-74
2022/12/06 02:06:34;;;;;;;4.43;4.03;;;;;;;0.51;100.00;101106.59;5028801;28;20123;-74
2022/12/06 02:09:05;;;;;;;4.53;4.13;;;;;;;0.52;100.00;101108.38;5009728;28;20164;-75
2022/12/06 02:11:32;;;;;;;5.60;5.00;;;;;;;0.52;100.00;101105.78;5023253;28;20045;-74
2022/12/06 02:13:59;;;;;;;5.40;4.70;;;;;;;0.47;100.00;101098.78;5025670;28;20068;-73
2022/12/06 02:16:42;;;;;;;6.43;4.85;;;;;;;0.45;100.00;101092.66;5023275;28;20275;-74
2022/12/06 02:19:36;;;;;;;5.20;4.43;;;;;;;0.43;100.00;101090.84;5040374;28;20056;-74
2022/12/06 02:22:22;;;;;;;5.40;4.88;;;;;;;0.44;100.00;101090.03;5038885;28;20049;-75
2022/12/06 02:25:27;;;;;;;5.78;4.97;;;;;;;0.38;100.00;101088.09;5036879;28;20052;-73
2022/12/06 02:28:59;;;;;;;5.45;4.05;;;;;;;0.38;100.00;101087.22;5062869;28;20472;-75
2022/12/06 02:31:44;;;;;;;6.47;5.03;;;;;;;0.33;100.00;101076.75;4962052;28;20128;-73
2022/12/06 02:34:41;;;;;;;5.43;4.60;;;;;;;0.36;100.00;101079.44;5055680;28;20060;-75
2022/12/06 02:37:26;;;;;;;5.75;4.95;;;;;;;0.36;100.00;101083.72;5029113;28;20135;-73
2022/12/06 02:40:09;;;;;;;6.78;4.93;;;;;;;0.32;100.00;101075.84;5061755;28;20041;-72
2022/12/06 02:42:47;;;;;;;6.15;4.13;;;;;;;0.37;100.00;101082.91;5041873;28;20687;-74
2022/12/06 02:45:19;;;;;;;4.53;4.13;;;;;;;0.38;100.00;101082.06;5040898;28;20691;-72
2022/12/06 02:47:48;;;;;;;4.85;4.15;;;;;;;0.42;100.00;101082.25;5039686;28;20052;-73
2022/12/06 02:50:21;;;;;;;6.22;4.57;;;;;;;0.40;100.00;101083.88;5026466;28;20263;-73
2022/12/06 02:52:52;;;;;;;5.38;4.15;;;;;;;0.40;100.00;101080.44;5039153;28;20053;-73
2022/12/06 02:55:19;;;;;;;5.30;4.10;;;;;;;0.38;100.00;101079.50;5059841;28;20123;-73
2022/12/06 02:57:53;;;;;;;4.10;3.70;;;;;;;0.36;100.00;101074.28;5042514;28;20052;-73
2022/12/06 03:00:34;;;;;;;;;;;;;;;0.36;100.00;101066.56;5039928;28;20067;-73
2022/12/06 03:03:43;;;;;;;4.78;3.25;;;;;;;0.37;100.00;101067.44;5037948;28;19925;-73
2022/12/06 03:06:39;;;;;;;6.07;4.30;;;;;;;0.38;100.00;101076.91;5063029;28;20044;-73
2022/12/06 03:09:06;;;;;;;4.82;3.92;;;;;;;0.41;100.00;101084.78;5063409;28;20036;-73
2022/12/06 03:11:52;;;;;;;4.97;4.47;;;;;;;0.38;100.00;101077.81;5061829;28;20039;-75
2022/12/06 03:14:23;;;;;;;5.30;4.50;;;;;;;0.37;100.00;101072.59;5040957;28;20044;-75
2022/12/06 03:17:16;;;;;;;3.70;3.38;;;;;;;0.33;100.00;101075.03;5046562;28;20048;-73
2022/12/06 03:19:50;;;;;;;5.00;3.88;;;;;;;0.32;100.00;101072.41;5042669;28;20047;-73
2022/12/06 03:22:37;;;;;;;;;;;;;;;0.30;100.00;101077.50;5026626;28;20139;-73
2022/12/06 03:25:06;;;;;;;3.05;2.75;;;;;;;0.28;100.00;101071.41;5043622;28;20011;-75
2022/12/06 03:27:35;;;;;;;3.33;3.00;;;;;;;0.26;100.00;101067.00;5015211;28;20079;-74
2022/12/06 03:30:07;;;;;;;3.58;3.25;;;;;;;0.24;100.00;101072.09;5031672;28;20040;-73
2022/12/06 03:32:37;;;;;;;3.78;3.42;;;;;;;0.25;100.00;101068.72;5026887;28;20051;-75
2022/12/06 03:35:10;;;;;;;5.38;4.32;;;;;;;0.25;100.00;101070.38;5027225;28;20668;-73
2022/12/06 03:37:42;;;;;;;3.63;3.28;;;;;;;0.25;100.00;101071.28;5031319;28;20045;-73
2022/12/06 03:40:25;;;;;;;4.30;3.95;;;;;;;0.23;100.00;101072.06;5031247;28;20048;-76
2022/12/06 03:42:52;;;;;;;5.60;5.05;;;;;;;0.22;100.00;101068.59;5010987;28;20048;-75
2022/12/06 03:45:23;;;;;;;5.32;4.20;;;;;;;0.26;100.00;101067.91;5026439;28;20528;-75
2022/12/06 03:48:03;;;;;;;4.82;4.28;;;;;;;0.31;100.00;101063.81;5043774;28;20399;-73
2022/12/06 03:50:36;;;;;;;5.07;4.57;;;;;;;0.36;100.00;101065.69;5045666;28;20049;-74
2022/12/06 03:53:02;;;;;;;6.97;4.87;;;;;;;0.36;100.00;101052.81;5029373;28;20037;-74
2022/12/06 03:55:29;;;;;;;7.70;5.10;;;;;;;0.38;100.00;101046.91;5029241;28;20045;-73
2022/12/06 03:57:56;;;;;;;6.88;5.72;;;;;;;0.40;100.00;101045.25;5033232;28;20052;-75
2022/12/06 04:00:22;;;;;;;7.55;5.85;;;;;;;0.40;100.00;101045.25;5031071;28;20722;-74
2022/12/06 04:02:49;;;;;;;6.95;5.50;;;;;;;0.43;100.00;101047.97;5027748;28;20053;-73
2022/12/06 04:05:15;;;;;;;6.78;5.60;;;;;;;0.44;100.00;101041.09;5028427;28;20674;-74
2022/12/06 04:07:42;;;;;;;8.07;5.68;;;;;;;0.45;100.00;101042.88;5033879;28;20040;-73
2022/12/06 04:10:08;;;;;;;9.98;6.03;;;;;;;0.48;100.00;101043.88;5044226;28;20428;-73
2022/12/06 04:15:22;;;;;;;8.18;6.70;;;;;;;0.51;100.00;101040.53;5032421;28;20096;-75
2022/12/06 04:23:14;;;;;;;8.30;5.97;;;;;;;0.52;100.00;101044.84;5015064;28;20038;-74
2022/12/06 04:25:40;;;;;;;7.47;5.80;;;;;;;0.52;100.00;101042.25;5033340;28;20044;-75
2022/12/06 04:39:04;;;;;;;8.70;5.10;;;;;;;0.53;100.00;101032.84;5030211;28;20135;-73
2022/12/06 04:44:14;;;;;;;6.97;5.43;;;;;;;0.53;100.00;101032.84;5066967;28;20039;-74
2022/12/06 04:46:41;;;;;;;11.85;6.45;;;;;;;0.53;100.00;101026.00;5044183;28;20041;-73
2022/12/06 04:49:07;;;;;;;10.75;6.13;;;;;;;0.55;100.00;101021.78;5033389;28;20048;-75
2022/12/06 04:51:34;;;;;;;7.65;4.75;;;;;;;0.55;100.00;101026.03;5044667;28;20050;-73
2022/12/06 04:54:01;;;;;;;7.63;5.80;;;;;;;0.53;100.00;101022.56;5044082;28;20120;-75
2022/12/06 04:56:27;;;;;;;7.90;5.60;;;;;;;0.51;100.00;101017.34;5042807;28;20049;-74
2022/12/06 04:58:54;;;;;;;9.63;6.68;;;;;;;0.51;100.00;101021.59;5054972;28;20134;-74
2022/12/06 05:01:20;;;;;;;8.57;6.13;;;;;;;0.52;100.00;101024.22;5046886;28;20040;-75
2022/12/06 05:03:47;;;;;;;12.75;6.45;;;;;;;0.55;100.00;101023.47;5042980;28;20053;-74
2022/12/06 05:06:13;;;;;;;9.68;7.32;;;;;;;0.56;100.00;101020.97;5044514;28;20044;-74
2022/12/06 05:08:40;;;;;;;9.82;6.40;;;;;;;0.57;100.00;101016.69;5048248;28;20036;-75
2022/12/06 05:11:07;;;;;;;12.93;7.10;;;;;;;0.57;100.00;101014.13;5063806;28;20048;-75
2022/12/06 05:13:33;;;;;;;6.90;6.07;;;;;;;0.56;100.00;101008.09;5041271;28;20043;-74
2022/12/06 05:16:04;;;;;;;11.05;6.93;;;;;;;0.58;100.00;101026.19;5039211;28;20439;-76
2022/12/06 05:18:30;;;;;;;11.23;6.68;;;;;;;0.59;100.00;101017.63;5042369;28;20044;-74
2022/12/06 05:21:27;;;;;;;13.95;7.15;;;;;;;0.60;100.00;101012.53;5040136;28;20056;-74
2022/12/06 05:23:56;;;;;;;10.25;7.10;;;;;;;0.63;100.00;101019.50;5030165;28;20145;-75
2022/12/06 05:26:28;;;;;;;7.63;6.00;;;;;;;0.64;100.00;101018.69;5047727;28;20082;-75
2022/12/06 05:28:56;;;;;;;12.20;6.93;;;;;;;0.67;100.00;101012.78;5069514;28;20080;-73
2022/12/06 05:31:24;;;;;;;7.78;5.68;;;;;;;0.64;100.00;101016.97;5052032;28;20797;-73
2022/12/06 05:33:52;;;;;;;14.10;7.03;;;;;;;0.65;100.00;101016.16;5056895;28;20051;-75
2022/12/06 05:36:25;;;;;;;12.18;6.50;;;;;;;0.67;100.00;101011.06;5051497;28;20410;-76
2022/12/06 05:38:52;;;;;;;11.25;6.88;;;;;;;0.67;100.00;100999.91;5056895;28;20707;-75
2022/12/06 05:41:21;;;;;;;9.85;6.60;;;;;;;0.68;100.00;101007.69;5051504;28;20072;-75
2022/12/06 05:43:48;;;;;;;12.05;6.72;;;;;;;0.70;100.00;101006.00;5054201;28;20044;-75
2022/12/06 05:46:18;;;;;;;9.32;6.78;;;;;;;0.68;100.00;101005.09;5044328;28;20049;-74
2022/12/06 05:48:44;;;;;;;14.10;7.63;;;;;;;0.68;100.00;101001.63;5065390;28;20487;-75
2022/12/06 05:51:11;;;;;;;15.32;7.15;;;;;;;0.68;100.00;100996.47;5048547;28;20436;-74
2022/12/06 05:53:39;;;;;;;10.77;6.70;;;;;;;0.72;100.00;100998.34;5046472;28;20045;-76
2022/12/06 05:56:11;;;;;;;14.43;7.00;;;;;;;0.74;100.00;100997.56;5051747;28;20048;-74
2022/12/06 05:58:38;;;;;;;16.60;7.10;;;;;;;0.77;100.00;101001.97;5054110;28;20044;-75
2022/12/06 06:01:07;;;;;;;17.80;7.95;;;;;;;0.78;100.00;101002.03;5045918;28;20457;-75
2022/12/06 06:03:34;;;;;;;15.05;7.72;;;;;;;0.78;100.00;100994.31;5053128;28;20061;-74
2022/12/06 06:06:05;;;;;;;16.52;8.88;;;;;;;0.80;100.00;100997.78;5049110;28;20040;-74
2022/12/06 06:08:31;;;;;;;14.32;7.40;;;;;;;0.81;100.00;100996.97;5052707;28;20044;-75
2022/12/06 06:10:59;;;;;;;22.08;8.40;;;;;;;0.82;100.00;100996.16;5053872;28;20820;-74
2022/12/06 06:13:26;;;;;;;16.38;8.40;;;;;;;0.80;100.00;101002.09;5052073;28;20032;-74
2022/12/06 06:15:53;;;;;;;18.10;7.28;;;;;;;0.80;100.00;100994.34;5048544;28;20048;-74
2022/12/06 06:18:20;;;;;;;23.38;8.75;;;;;;;0.79;100.00;100996.03;5064927;28;20044;-74
2022/12/06 06:20:57;;;;;;;18.42;9.10;;;;;;;0.79;100.00;100996.03;5071307;28;20053;-74
2022/12/06 06:23:23;;;;;;;11.75;8.20;;;;;;;0.79;100.00;100996.03;5038113;28;20041;-74
2022/12/06 06:25:53;;;;;;;15.68;7.80;;;;;;;0.83;100.00;100991.88;5064203;28;20083;-75
2022/12/06 06:28:20;;;;;;;42.90;11.27;;;;;;;0.84;100.00;100995.34;5042927;28;20072;-75
2022/12/06 06:30:49;;;;;;;16.05;9.27;;;;;;;0.86;100.00;100994.59;5046969;28;20505;-74
2022/12/06 06:33:16;;;;;;;17.30;8.52;;;;;;;0.91;100.00;100999.88;5045266;28;20037;-74
2022/12/06 06:35:43;;;;;;;17.00;8.02;;;;;;;0.91;100.00;100987.00;5045336;28;20044;-75
2022/12/06 06:38:14;;;;;;;16.70;8.25;;;;;;;0.91;100.00;100995.63;5046630;28;20044;-74
2022/12/06 06:40:41;;;;;;;23.38;11.50;;;;;;;0.95;100.00;100988.84;5065662;28;20047;-74
2022/12/06 06:43:19;;;;;;;20.85;9.65;;;;;;;0.95;100.00;100989.75;5043771;28;20498;-74
2022/12/06 06:45:57;;;;;;;17.05;10.05;;;;;;;0.95;100.00;100984.59;5047499;28;20052;-73
2022/12/06 06:48:25;;;;;;;27.52;9.07;;;;;;;0.97;100.00;100992.38;5046142;28;20040;-73
2022/12/06 06:50:52;;;;;;;19.65;8.85;;;;;;;0.97;100.00;100997.53;5048121;28;20045;-74
2022/12/06 06:53:23;;;;;;;20.80;9.38;;;;;;;0.94;100.00;100990.56;5044915;28;20124;-74
2022/12/06 06:56:21;;;;;;;20.40;10.00;;;;;;;0.97;100.00;100995.81;5040827;28;20048;-75
2022/12/06 06:59:10;;;;;;;21.15;8.75;;;;;;;1.00;100.00;100992.47;5053141;28;20063;-73
2022/12/06 07:01:37;;;;;;;20.83;8.15;;;;;;;1.00;100.00;101000.22;5045384;28;20147;-74
2022/12/06 07:04:03;;;;;;;13.52;8.32;;;;;;;1.02;100.00;100995.09;5069264;28;20051;-74
2022/12/06 07:06:30;;;;;;;16.30;8.00;;;;;;;1.02;100.00;100997.69;5048482;28;20437;-74
2022/12/06 07:08:57;;;;;;;14.90;8.25;;;;;;;1.05;100.00;101005.56;5036433;28;20187;-74
2022/12/06 07:11:34;;;;;;;;;;;;;;;;;;;;;
2022/12/06 07:14:09;;;;;;;18.10;7.72;;;;;;;1.09;100.00;101012.56;5070358;28;20041;-73
2022/12/06 07:16:36;;;;;;;14.48;7.82;;;;;;;1.11;100.00;101011.78;5051777;28;20043;-73
2022/12/06 07:19:03;;;;;;;11.38;7.22;;;;;;;1.13;100.00;101017.91;5052883;28;20045;-73
2022/12/06 07:21:30;;;;;;;12.40;7.55;;;;;;;1.15;100.00;101018.81;5055857;28;20443;-73
2022/12/06 07:24:00;;;;;;;15.48;8.23;;;;;;;1.19;100.00;101018.91;5050738;28;20055;-73
2022/12/06 07:29:28;;;;;;;12.80;7.38;;;;;;;1.20;100.00;101024.16;5038796;28;20055;-73
2022/12/06 07:31:55;;;;;;;13.25;9.40;;;;;;;1.21;100.00;101027.59;5053917;28;20048;-73
2022/12/06 07:34:24;;;;;;;14.63;7.90;;;;;;;1.21;100.00;101025.00;5050516;28;20079;-73
2022/12/06 07:36:51;;;;;;;19.55;8.23;;;;;;;1.23;100.00;101033.69;5066996;28;20597;-72
2022/12/06 07:39:17;;;;;;;12.88;7.45;;;;;;;1.23;100.00;101036.28;5050716;28;20898;-73
2022/12/06 07:47:12;;;;;;;13.13;7.53;;;;;;;1.24;100.00;101025.09;5039418;28;20040;-74
2022/12/06 07:49:38;;;;;;;11.43;7.63;;;;;;;1.24;100.00;101023.41;5052100;28;20063;-75
2022/12/06 07:52:05;;;;;;;16.63;8.10;;;;;;;1.28;100.00;101032.16;5074487;28;20143;-75
2022/12/06 07:54:31;;;;;;;14.43;7.70;;;;;;;1.30;100.00;101031.38;5072897;28;20056;-75
2022/12/06 07:56:58;;;;;;;13.07;7.97;;;;;;;1.34;100.00;101031.47;5037920;28;20549;-75
2022/12/06 07:59:25;;;;;;;12.15;7.15;;;;;;;1.36;100.00;101024.69;5051499;28;20128;-74
2022/12/06 08:01:52;;;;;;;12.95;7.13;;;;;;;1.38;100.00;101025.59;5071046;28;20082;-73
2022/12/06 08:04:21;;;;;;;8.75;6.05;;;;;;;1.43;100.00;101029.22;5052321;28;20048;-73
2022/12/06 08:06:48;;;;;;;15.15;7.95;;;;;;;1.45;100.00;101033.59;5051004;28;20040;-74
2022/12/06 08:09:14;;;;;;;13.65;6.88;;;;;;;1.48;100.00;101027.66;5032947;28;20056;-73
2022/12/06 08:11:41;;;;;;;11.82;6.75;;;;;;;1.52;100.00;101024.34;5051325;28;20043;-74
2022/12/06 08:14:08;;;;;;;13.73;7.55;;;;;;;1.56;100.00;101033.09;5049154;28;20056;-74
2022/12/06 08:16:34;;;;;;;12.57;8.13;;;;;;;1.56;100.00;101028.78;5054106;28;20158;-73
2022/12/06 08:19:01;;;;;;;12.98;6.95;;;;;;;1.59;100.00;101036.66;5050460;28;20050;-74
2022/12/06 08:21:28;;;;;;;14.32;7.68;;;;;;;1.62;100.00;101041.03;5049449;28;20045;-73
2022/12/06 08:23:54;;;;;;;17.88;8.40;;;;;;;1.63;100.00;101046.25;5068293;28;20044;-73
2022/12/06 08:26:22;;;;;;;16.20;7.53;;;;;;;1.65;100.00;101043.72;5049918;28;20053;-74
2022/12/06 08:28:48;;;;;;;20.05;9.35;;;;;;;1.66;100.00;101045.47;5028886;28;20044;-75
2022/12/06 08:31:19;;;;;;;13.88;7.55;;;;;;;1.66;100.00;101048.06;5069388;28;20120;-75
2022/12/06 08:33:45;;;;;;;18.55;9.35;;;;;;;1.68;100.00;101043.81;5049347;28;20048;-73
2022/12/06 08:36:16;;;;;;;24.00;9.60;;;;;;;1.71;100.00;101048.19;5047085;28;20044;-76
2022/12/06 08:38:43;;;;;;;37.85;13.00;;;;;;;1.72;100.00;101044.81;5045860;28;20128;-74
2022/12/06 08:41:54;;;;;;;21.35;10.27;;;;;;;1.74;100.00;101045.75;5051088;28;20049;-76
2022/12/06 08:43:59;;;;;;;22.50;9.98;;;;;;;1.77;100.00;101049.31;5046737;28;20040;-74
2022/12/06 08:46:27;;;;;;;22.40;11.05;;;;;;;1.79;100.00;101037.31;5066309;28;20051;-76
2022/12/06 08:48:54;;;;;;;20.40;9.82;;;;;;;1.82;100.00;101041.69;5034823;28;20051;-75
2022/12/06 08:51:20;;;;;;;28.60;12.65;;;;;;;1.85;100.00;101046.09;5049198;28;20070;-75
2022/12/06 08:53:47;;;;;;;28.42;11.63;;;;;;;1.85;100.00;101046.09;5041140;28;21284;-76
2022/12/06 08:56:18;;;;;;;24.75;12.38;;;;;;;1.86;100.00;101048.72;5029044;28;20500;-74
2022/12/06 08:58:46;;;;;;;27.10;12.45;;;;;;;1.89;100.00;101043.66;5065295;28;20048;-75
2022/12/06 09:26:48;;;;;;;24.02;10.80;;;;;;;2.12;100.00;101062.47;4903999;28;20144;-75
2022/12/06 09:29:16;;;;;;;28.33;12.10;;;;;;;2.15;100.00;101065.16;5035140;28;20190;-74
2022/12/06 09:31:42;;;;;;;28.50;14.07;;;;;;;2.15;100.00;101052.25;5036128;28;20040;-74
2022/12/06 09:34:11;;;;;;;23.52;11.93;;;;;;;2.17;100.00;101054.88;5051388;28;20113;-74
2022/12/06 09:36:43;;;;;;;23.83;11.77;;;;;;;2.19;100.00;101055.81;5036313;28;20483;-75
2022/12/06 09:39:17;;;;;;;22.55;12.10;;;;;;;2.21;100.00;101055.84;5036220;28;20805;-75
2022/12/06 09:41:53;;;;;;;;;;;;;;;2.25;100.00;101058.56;5038036;28;20082;-75
2022/12/06 09:45:00;;;;;;;23.15;10.63;;;;;;;2.28;100.00;101048.34;5054321;28;19947;-76
2022/12/06 09:47:58;;;;;;;19.02;10.15;;;;;;;2.30;100.00;101051.84;5033154;28;20139;-76
2022/12/06 09:50:47;;;;;;;21.73;10.38;;;;;;;2.34;100.00;101050.25;5053152;28;20476;-74
2022/12/06 09:53:19;;;;;;;21.85;10.68;;;;;;;2.35;100.00;101048.53;5049907;28;20066;-75
2022/12/06 09:56:07;;;;;;;21.38;9.48;;;;;;;2.37;100.00;101058.06;5043812;28;20730;-74
2022/12/06 09:59:09;;;;;;;22.08;9.75;;;;;;;2.40;100.00;101050.44;5035443;28;20051;-73
2022/12/06 10:02:21;;;;;;;20.08;10.30;;;;;;;2.43;100.00;101047.94;5055351;28;20040;-74
2022/12/06 10:05:02;;;;;;;18.00;8.93;;;;;;;2.47;100.00;101047.19;5045501;28;20551;-74
2022/12/06 10:07:50;;;;;;;22.00;10.52;;;;;;;2.48;100.00;101035.16;5051695;28;20045;-74
2022/12/06 10:10:32;;;;;;;18.30;9.15;;;;;;;2.51;100.00;101040.41;5036371;28;20056;-74
2022/12/06 10:13:13;;;;;;;17.58;8.05;;;;;;;2.52;100.00;101041.31;5049480;28;20044;-73
2022/12/06 10:16:22;;;;;;;17.95;9.50;;;;;;;2.53;100.00;101033.59;5034068;28;21090;-74
2022/12/06 10:19:12;;;;;;;18.15;8.80;;;;;;;2.57;100.00;101039.72;5014766;28;20140;-73
2022/12/06 10:22:20;;;;;;;18.25;9.20;;;;;;;2.60;100.00;101032.06;5029505;28;20122;-74
2022/12/06 10:25:22;;;;;;;17.20;9.15;;;;;;;2.60;100.00;101030.34;4980830;28;20050;-74
2022/12/06 10:27:53;;;;;;;17.25;7.32;;;;;;;2.64;100.00;101028.75;5031314;28;20736;-74
2022/12/06 10:30:20;;;;;;;13.55;7.20;;;;;;;2.63;100.00;101026.97;5030844;28;20037;-74
2022/12/06 10:33:19;;;;;;;15.38;7.75;;;;;;;2.67;100.00;101026.22;5031460;28;20041;-74
2022/12/06 10:36:00;;;;;;;14.95;8.23;;;;;;;2.70;100.00;101028.03;5015922;28;20075;-75
2022/12/06 10:38:37;;;;;;;13.10;6.63;;;;;;;2.71;100.00;101019.44;5017848;28;20041;-74
2022/12/06 10:41:21;;;;;;;12.75;7.07;;;;;;;2.71;100.00;101020.34;5035053;28;20423;-75
2022/12/06 10:43:55;;;;;;;15.32;7.50;;;;;;;2.71;100.00;101024.63;5030346;28;20479;-74
2022/12/06 10:47:05;;;;;;;13.07;7.45;;;;;;;2.73;100.00;101022.97;5018550;28;20044;-74
2022/12/06 10:49:57;;;;;;;18.42;8.60;;;;;;;2.76;100.00;101021.31;5034499;28;20046;-75
2022/12/06 10:52:52;;;;;;;17.65;8.52;;;;;;;2.73;100.00;101017.81;5034513;28;20069;-74
2022/12/06 10:55:24;;;;;;;;;;;;;;;2.69;100.00;101018.56;5034959;28;20044;-74
2022/12/06 10:58:10;;;;;;;17.58;8.82;;;;;;;2.68;100.00;101016.78;5018125;28;20032;-74
2022/12/06 11:01:08;;;;;;;16.30;8.40;;;;;;;2.66;100.00;101016.75;4999680;28;20053;-74
2022/12/06 11:04:10;;;;;;;17.15;8.55;;;;;;;2.65;100.00;101013.28;5015862;28;20049;-76
2022/12/06 11:06:49;;;;;;;12.82;7.50;;;;;;;2.67;100.00;101015.03;5025726;28;20053;-74
2022/12/06 11:09:31;;;;;;;16.70;8.57;;;;;;;2.67;100.00;101017.63;5020208;28;20049;-74
2022/12/06 11:11:58;;;;;;;13.02;6.68;;;;;;;2.62;100.00;101014.88;5035403;28;20073;-74
2022/12/06 11:14:29;;;;;;;16.25;7.95;;;;;;;2.64;100.00;101016.69;5017021;28;20052;-74
2022/12/06 11:17:06;;;;;;;22.33;8.95;;;;;;;2.67;100.00;101015.03;5021763;28;20049;-74
2022/12/06 11:20:20;;;;;;;11.98;7.65;;;;;;;2.69;100.00;101010.78;5017871;28;20051;-75
2022/12/06 11:23:19;;;;;;;16.70;8.07;;;;;;;2.71;100.00;101012.59;5005549;28;20054;-74
2022/12/06 11:26:44;;;;;;;14.73;7.03;;;;;;;2.74;100.00;101014.41;5012278;28;20045;-74
2022/12/06 11:29:14;;;;;;;10.80;5.68;;;;;;;2.74;100.00;101006.63;5004539;28;20108;-74
2022/12/06 11:31:49;;;;;;;14.88;7.72;;;;;;;2.76;100.00;101004.94;5016308;28;20046;-74
2022/12/06 11:34:28;;;;;;;10.30;5.93;;;;;;;2.75;100.00;101006.69;5014331;28;20049;-75
2022/12/06 11:36:56;;;;;;;11.88;5.88;;;;;;;2.73;100.00;101005.75;5006793;28;20139;-75
2022/12/06 11:39:24;;;;;;;11.55;6.22;;;;;;;2.75;100.00;101008.38;5033040;28;20129;-74
2022/12/06 11:41:55;;;;;;;11.85;6.95;;;;;;;2.74;100.00;101004.06;5014488;28;20419;-73
2022/12/06 11:44:29;;;;;;;8.43;5.38;;;;;;;2.76;100.00;101007.53;5012876;28;20088;-74
2022/12/06 11:47:02;;;;;;;9.07;5.75;;;;;;;2.76;100.00;101000.66;5015022;28;20542;-74
2022/12/06 11:49:39;;;;;;;10.52;5.28;;;;;;;2.79;100.00;101008.50;5015905;28;20046;-74
2022/12/06 11:52:16;;;;;;;9.73;5.85;;;;;;;2.80;100.00;101001.63;5001588;28;20139;-74
2022/12/06 11:54:50;;;;;;;10.00;5.70;;;;;;;2.80;100.00;101001.63;5017293;28;20041;-76
2022/12/06 11:57:29;;;;;;;;;;;;;;;2.80;100.00;101001.63;5013031;28;20555;-74
2022/12/06 12:00:20;;;;;;;10.45;5.53;;;;;;;2.80;100.00;101001.63;5013109;28;19931;-74
2022/12/06 12:02:50;;;;;;;14.13;7.50;;;;;;;2.80;100.00;100999.03;5012663;28;20128;-74
2022/12/06 12:05:21;;;;;;;11.77;7.10;;;;;;;2.81;100.00;101000.78;5016276;28;20046;-76
2022/12/06 12:07:55;;;;;;;11.40;6.38;;;;;;;2.83;100.00;100999.13;4995487;28;20049;-74
2022/12/06 12:10:37;;;;;;;12.50;7.53;;;;;;;2.85;100.00;100994.00;5009035;28;20151;-76
2022/12/06 12:16:01;;;;;;;10.63;6.32;;;;;;;2.82;100.00;100992.22;5013064;28;20060;-76
2022/12/06 12:18:42;;;;;;;11.63;6.32;;;;;;;2.83;100.00;100996.56;5028398;28;20073;-76
2022/12/06 12:21:08;;;;;;;11.63;6.28;;;;;;;2.83;100.00;100993.06;5009363;28;20096;-74
2022/12/06 12:23:43;;;;;;;12.07;6.32;;;;;;;2.84;100.00;100993.09;5011660;28;20053;-76
2022/12/06 12:26:16;;;;;;;11.20;6.70;;;;;;;2.85;100.00;100986.25;5011409;28;20124;-74
2022/12/06 12:28:46;;;;;;;10.15;6.35;;;;;;;2.86;100.00;100988.00;5024760;28;21025;-74
2022/12/06 12:31:23;;;;;;;15.85;8.02;;;;;;;2.90;100.00;100976.91;5011530;28;20052;-75
2022/12/06 12:34:18;;;;;;;9.80;6.07;;;;;;;2.95;100.00;100983.09;5023325;28;20046;-74
2022/12/06 12:37:01;;;;;;;9.55;6.32;;;;;;;2.95;100.00;100978.78;5011233;28;20046;-74
2022/12/06 12:39:36;;;;;;;11.93;6.97;;;;;;;2.97;100.00;100977.13;5011507;28;20582;-74
2022/12/06 12:42:04;;;;;;;10.05;6.32;;;;;;;2.99;100.00;100969.41;5013065;28;20300;-74
2022/12/06 12:44:54;;;;;;;12.15;7.35;;;;;;;3.04;100.00;100977.25;5013379;28;20041;-74
2022/12/06 12:47:27;;;;;;;9.32;5.90;;;;;;;3.04;100.00;100974.69;5010584;28;20045;-75
2022/12/06 12:50:17;;;;;;;13.45;7.32;;;;;;;3.07;100.00;100979.94;5010095;28;20045;-74
2022/12/06 12:52:44;;;;;;;10.25;6.65;;;;;;;3.08;100.00;100977.41;5015079;28;20045;-73